Time;durP1;ratioP1;P1;durP2;ratioP2;P2;SDS_P1;SDS_P2;PMS_P1;PMS_P2;Temp;Humidity;BMP_temperature;BMP_pressure;BME280_temperature;BME280_humidity;BME280_pressure;Samples;Min_cycle;Max_cycle;Signal;HPM_P1;HPM_P2
2024/01/17 00:00:08;;;;;;;10.52;4.13;;;;;;;;;;5013637;28;20037;-70
2024/01/17 00:02:34;;;;;;;5.50;3.63;;;;;;;;;;5030305;28;20442;-72
2024/01/17 00:05:00;;;;;;;10.43;4.75;;;;;;;;;;5029643;28;20643;-70
2024/01/17 00:07:26;;;;;;;11.65;4.47;;;;;;;;;;5029921;28;20033;-70
2024/01/17 00:09:52;;;;;;;10.77;4.38;;;;;;;;;;5031129;28;20044;-71
2024/01/17 00:12:18;;;;;;;8.77;4.60;;;18.20;1.00;;;;;;5030848;28;20124;-68
2024/01/17 00:14:44;;;;;;;9.52;4.85;;;;;;;;;;5031052;28;20064;-70
2024/01/17 00:17:10;;;;;;;10.07;4.80;;;;;;;;;;5031262;28;20512;-70
2024/01/17 00:19:36;;;;;;;7.22;4.63;;;;;;;;;;5031275;28;20038;-70
2024/01/17 00:22:02;;;;;;;11.35;5.32;;;;;;;;;;5029760;28;20065;-70
2024/01/17 00:24:28;;;;;;;8.00;5.05;;;;;;;;;;5029898;28;20489;-70
2024/01/17 00:26:54;;;;;;;12.02;4.82;;;;;;;;;;5029648;28;20076;-69
2024/01/17 00:29:20;;;;;;;11.82;5.95;;;;;;;;;;5030833;28;20092;-69
2024/01/17 00:31:46;;;;;;;15.23;5.50;;;;;;;;;;5017719;28;20037;-69
2024/01/17 00:34:12;;;;;;;10.05;5.22;;;;;;;;;;5017833;28;20467;-70
2024/01/17 00:36:38;;;;;;;15.10;5.90;;;;;;;;;;5017494;28;20049;-67
2024/01/17 00:39:04;;;;;;;11.02;5.65;;;;;;;;;;5034498;28;20048;-71
2024/01/17 00:41:30;;;;;;;12.70;6.45;;;;;;;;;;5035453;28;20131;-69
2024/01/17 00:43:56;;;;;;;7.95;5.63;;;;;;;;;;5034301;28;20037;-69
2024/01/17 00:46:22;;;;;;;14.10;5.65;;;;;;;;;;5033503;28;20046;-71
2024/01/17 00:48:48;;;;;;;9.82;6.30;;;;;;;;;;5033917;28;20140;-69
2024/01/17 00:51:24;;;;;;;10.20;6.18;;;18.00;1.00;;;;;;5033910;28;20044;-69
2024/01/17 00:53:50;;;;;;;10.82;6.80;;;;;;;;;;5033916;28;20124;-69
2024/01/17 00:56:16;;;;;;;10.65;5.90;;;;;;;;;;5034478;28;20145;-69
2024/01/17 00:58:42;;;;;;;13.02;6.35;;;;;;;;;;5033995;28;20448;-69
2024/01/17 01:01:08;;;;;;;10.05;6.38;;;;;;;;;;5033753;28;20091;-69
2024/01/17 01:03:34;;;;;;;8.40;6.40;;;18.10;1.00;;;;;;5033613;28;20095;-69
2024/01/17 01:06:00;;;;;;;12.55;6.55;;;;;;;;;;5033021;28;20405;-70
2024/01/17 01:08:25;;;;;;;10.93;5.95;;;18.20;1.00;;;;;;5033510;28;20072;-68
2024/01/17 01:10:51;;;;;;;11.05;5.93;;;;;;;;;;5033560;28;20111;-68
2024/01/17 01:13:17;;;;;;;11.50;6.47;;;;;;;;;;5017107;28;20677;-69
2024/01/17 01:15:43;;;;;;;11.50;6.28;;;;;;;;;;5032957;28;20041;-69
2024/01/17 01:18:09;;;;;;;18.52;6.68;;;18.20;1.00;;;;;;5033501;28;20095;-69
2024/01/17 01:20:34;;;;;;;12.70;6.15;;;18.20;1.00;;;;;;5033427;28;20033;-69
2024/01/17 01:23:00;;;;;;;9.38;5.78;;;18.30;1.00;;;;;;5033312;28;20069;-69
2024/01/17 01:25:26;;;;;;;13.18;6.07;;;;;;;;;;5033134;28;20040;-69
2024/01/17 01:27:52;;;;;;;18.90;7.43;;;;;;;;;;5033207;28;20541;-70
2024/01/17 01:30:18;;;;;;;10.55;7.00;;;;;;;;;;5033140;28;20095;-67
2024/01/17 01:32:44;;;;;;;14.75;6.70;;;;;;;;;;5033481;28;20416;-69
2024/01/17 01:35:10;;;;;;;15.20;7.43;;;;;;;;;;5032615;28;20045;-69
2024/01/17 01:37:36;;;;;;;11.45;7.13;;;;;;;;;;5033274;28;20050;-69
2024/01/17 01:40:03;;;;;;;9.88;6.50;;;;;;;;;;5016011;28;20053;-69
2024/01/17 01:42:29;;;;;;;11.23;7.03;;;;;;;;;;5032967;28;20045;-69
2024/01/17 01:44:55;;;;;;;12.15;6.85;;;;;;;;;;5032392;28;20076;-69
2024/01/17 01:47:22;;;;;;;10.52;6.45;;;18.40;1.00;;;;;;5016253;28;20076;-69
2024/01/17 01:49:48;;;;;;;12.88;6.38;;;;;;;;;;5032826;28;20041;-69
2024/01/17 01:52:14;;;;;;;12.35;6.88;;;18.10;1.00;;;;;;5016511;28;20136;-70
2024/01/17 01:54:40;;;;;;;10.63;7.10;;;;;;;;;;5032574;28;20046;-71
2024/01/17 01:57:07;;;;;;;14.38;9.10;;;18.20;1.00;;;;;;5032660;28;20037;-69
2024/01/17 01:59:34;;;;;;;11.85;6.90;;;;;;;;;;5032884;28;20045;-71
2024/01/17 02:02:00;;;;;;;13.52;7.10;;;;;;;;;;5032474;28;20077;-69
2024/01/17 02:04:27;;;;;;;10.57;6.68;;;18.20;1.00;;;;;;5032682;28;20120;-72
2024/01/17 02:06:54;;;;;;;12.30;7.07;;;;;;;;;;5031924;28;20116;-69
2024/01/17 02:09:20;;;;;;;15.60;8.82;;;;;;;;;;5032655;28;20171;-72
2024/01/17 02:11:47;;;;;;;15.63;6.68;;;18.30;1.00;;;;;;5032508;28;20091;-70
2024/01/17 02:14:13;;;;;;;11.60;7.22;;;;;;;;;;5016014;28;20037;-70
2024/01/17 02:16:39;;;;;;;9.23;6.72;;;;;;;;;;5031665;28;20037;-67
2024/01/17 02:19:06;;;;;;;10.93;7.40;;;;;;;;;;5032423;28;20037;-69
2024/01/17 02:21:32;;;;;;;14.48;7.15;;;;;;;;;;5032283;28;20041;-70
2024/01/17 02:24:17;;;;;;;14.90;7.65;;;;;;;;;;5015874;28;20125;-70
2024/01/17 02:26:43;;;;;;;18.35;6.82;;;;;;;;;;5015026;28;20093;-71
2024/01/17 02:29:09;;;;;;;9.52;6.90;;;;;;;;;;5032117;28;20132;-70
2024/01/17 02:31:35;;;;;;;13.45;7.30;;;;;;;;;;5031854;28;20124;-71
2024/01/17 02:34:01;;;;;;;16.50;7.47;;;;;;;;;;5032029;28;20096;-71
2024/01/17 02:36:27;;;;;;;16.10;8.18;;;;;;;;;;5031690;28;20584;-67
2024/01/17 02:38:53;;;;;;;11.65;8.35;;;;;;;;;;5031955;28;20120;-70
2024/01/17 02:41:19;;;;;;;12.93;7.50;;;;;;;;;;5015486;28;20528;-71
2024/01/17 02:43:45;;;;;;;14.75;7.63;;;;;;;;;;5031755;28;20080;-70
2024/01/17 02:46:11;;;;;;;14.88;8.10;;;;;;;;;;5014832;28;20040;-70
2024/01/17 02:48:37;;;;;;;12.77;7.45;;;;;;;;;;5015551;28;20037;-70
2024/01/17 02:51:03;;;;;;;13.43;7.25;;;;;;;;;;5031806;28;20034;-70
2024/01/17 02:53:29;;;;;;;12.23;8.10;;;18.30;1.00;;;;;;5030979;28;20099;-69
2024/01/17 02:55:55;;;;;;;15.35;8.43;;;;;;;;;;5031179;28;20042;-71
2024/01/17 02:58:20;;;;;;;11.05;7.75;;;18.30;1.00;;;;;;5031783;28;20081;-70
2024/01/17 03:00:46;;;;;;;18.33;8.98;;;;;;;;;;5032324;28;20480;-71
2024/01/17 03:03:12;;;;;;;14.38;7.60;;;;;;;;;;5032316;28;20038;-72
2024/01/17 03:05:38;;;;;;;16.95;8.25;;;;;;;;;;5031284;28;20049;-68
2024/01/17 03:08:05;;;;;;;13.05;8.02;;;;;;;;;;5031781;28;20037;-68
2024/01/17 03:10:31;;;;;;;19.02;8.05;;;;;;;;;;5031352;28;20549;-70
2024/01/17 03:12:57;;;;;;;16.05;7.90;;;;;;;;;;5031595;28;20049;-70
2024/01/17 03:15:23;;;;;;;16.35;8.10;;;;;;;;;;5030988;28;20067;-71
2024/01/17 03:17:49;;;;;;;13.77;8.23;;;;;;;;;;5014676;28;20048;-70
2024/01/17 03:20:16;;;;;;;17.08;8.02;;;;;;;;;;5014464;28;20045;-70
2024/01/17 03:22:42;;;;;;;16.00;8.88;;;;;;;;;;5031083;28;20055;-70
2024/01/17 03:25:08;;;;;;;17.80;8.52;;;;;;;;;;5030563;28;20500;-69
2024/01/17 03:27:35;;;;;;;14.00;8.93;;;;;;;;;;5032392;28;20053;-70
2024/01/17 03:30:01;;;;;;;17.13;8.40;;;18.10;1.00;;;;;;5031127;28;20037;-70
2024/01/17 03:32:27;;;;;;;14.90;8.73;;;;;;;;;;5031333;28;20045;-70
2024/01/17 03:34:55;;;;;;;18.33;9.75;;;;;;;;;;5030586;28;20041;-70
2024/01/17 03:37:22;;;;;;;14.57;8.35;;;;;;;;;;5032057;28;20041;-69
2024/01/17 03:39:48;;;;;;;19.17;10.77;;;;;;;;;;5030748;28;20041;-71
2024/01/17 03:42:17;;;;;;;18.60;9.77;;;;;;;;;;5030958;28;20099;-71
2024/01/17 03:44:46;;;;;;;17.15;9.15;;;;;;;;;;5013749;28;20068;-69
2024/01/17 03:47:12;;;;;;;15.18;9.05;;;;;;;;;;5030855;28;20528;-71
2024/01/17 03:49:39;;;;;;;14.10;8.88;;;;;;;;;;5030452;28;20068;-71
2024/01/17 03:52:05;;;;;;;14.18;8.68;;;18.60;1.00;;;;;;5030644;28;20468;-71
2024/01/17 03:54:31;;;;;;;17.83;10.13;;;;;;;;;;5030515;28;20041;-70
2024/01/17 03:56:57;;;;;;;18.20;9.50;;;;;;;;;;5029898;28;20041;-69
2024/01/17 03:59:23;;;;;;;18.75;9.10;;;18.20;1.00;;;;;;5030924;28;20235;-70
2024/01/17 04:01:49;;;;;;;15.88;10.00;;;;;;;;;;5030459;28;20124;-71
2024/01/17 04:04:15;;;;;;;14.88;9.68;;;;;;;;;;5031673;28;20445;-70
2024/01/17 04:06:41;;;;;;;13.93;9.20;;;;;;;;;;5029913;28;20121;-69
2024/01/17 04:09:07;;;;;;;17.00;9.95;;;;;;;;;;5030765;28;20045;-70
2024/01/17 04:11:33;;;;;;;17.55;9.82;;;;;;;;;;5014216;28;20440;-72
2024/01/17 04:13:59;;;;;;;14.95;10.05;;;;;;;;;;5030442;28;20095;-70
2024/01/17 04:16:25;;;;;;;21.00;9.98;;;;;;;;;;5013730;28;20048;-70
2024/01/17 04:18:51;;;;;;;12.45;9.07;;;;;;;;;;5030282;28;20037;-70
2024/01/17 04:21:21;;;;;;;16.20;10.20;;;;;;;;;;5030271;28;20124;-70
2024/01/17 04:23:50;;;;;;;17.33;9.82;;;;;;;;;;5030309;28;20544;-70
2024/01/17 04:26:24;;;;;;;17.08;9.57;;;18.40;1.00;;;;;;5029840;28;20124;-70
2024/01/17 04:28:50;;;;;;;23.33;11.27;;;;;;;;;;5013969;28;20096;-69
2024/01/17 04:31:24;;;;;;;18.88;9.95;;;18.40;1.00;;;;;;5030074;28;20045;-70
2024/01/17 04:33:50;;;;;;;17.38;10.20;;;;;;;;;;5030417;28;20128;-71
2024/01/17 04:36:16;;;;;;;15.95;9.60;;;;;;;;;;5029438;28;20052;-70
2024/01/17 04:38:43;;;;;;;14.90;9.90;;;;;;;;;;5030074;28;20045;-71
2024/01/17 04:41:10;;;;;;;14.50;9.40;;;;;;;;;;5013664;28;20045;-70
2024/01/17 04:43:36;;;;;;;13.32;9.05;;;;;;;;;;5030094;28;20052;-70
2024/01/17 04:46:02;;;;;;;20.25;10.52;;;18.00;1.00;;;;;;5029597;28;20041;-70
2024/01/17 04:48:28;;;;;;;15.45;9.88;;;;;;;;;;5029902;28;20046;-68
2024/01/17 04:50:58;;;;;;;15.32;9.80;;;;;;;;;;5029988;28;20038;-70
2024/01/17 04:53:24;;;;;;;18.65;8.88;;;18.10;1.00;;;;;;5029978;28;20049;-70
2024/01/17 04:55:50;;;;;;;19.35;9.93;;;;;;;;;;5029464;28;20049;-70
2024/01/17 04:58:17;;;;;;;14.35;8.10;;;18.20;1.00;;;;;;5029855;28;20386;-70
2024/01/17 05:00:46;;;;;;;15.98;9.85;;;18.10;1.00;;;;;;5013572;28;20051;-70
2024/01/17 05:03:12;;;;;;;17.52;9.73;;;;;;;;;;5029904;28;20043;-70
2024/01/17 05:05:41;;;;;;;14.75;9.00;;;18.10;1.00;;;;;;5029499;28;20045;-70
2024/01/17 05:08:07;;;;;;;16.27;9.18;;;;;;;;;;5029817;28;20038;-70
2024/01/17 05:10:33;;;;;;;19.75;10.70;;;;;;;;;;5029843;28;20489;-69
2024/01/17 05:12:59;;;;;;;14.27;9.35;;;18.20;1.00;;;;;;5030176;28;20079;-69
2024/01/17 05:15:25;;;;;;;15.35;9.35;;;;;;;;;;5030084;28;20037;-67
2024/01/17 05:17:51;;;;;;;21.45;9.93;;;;;;;;;;5033242;28;20049;-70
2024/01/17 05:20:17;;;;;;;15.85;10.00;;;18.00;1.00;;;;;;5033660;28;20082;-70
2024/01/17 05:22:43;;;;;;;16.85;10.25;;;;;;;;;;5033432;28;20085;-70
2024/01/17 05:25:11;;;;;;;15.98;9.95;;;;;;;;;;5033045;28;20397;-70
2024/01/17 05:27:38;;;;;;;16.35;9.45;;;;;;;;;;5033200;28;20080;-70
2024/01/17 05:30:05;;;;;;;17.52;10.27;;;;;;;;;;5033242;28;20049;-70
2024/01/17 05:32:31;;;;;;;15.82;9.38;;;;;;;;;;5033792;28;20183;-68
2024/01/17 05:34:56;;;;;;;16.45;10.68;;;18.10;1.00;;;;;;5034039;28;20116;-70
2024/01/17 05:37:23;;;;;;;19.20;10.05;;;18.10;1.00;;;;;;5016813;28;20033;-70
2024/01/17 05:39:49;;;;;;;22.38;11.30;;;;;;;;;;5033010;28;20042;-71
2024/01/17 05:42:15;;;;;;;20.17;10.10;;;;;;;;;;5033061;28;20520;-70
2024/01/17 05:44:41;;;;;;;16.98;10.02;;;;;;;;;;5032901;28;20045;-72
2024/01/17 05:47:07;;;;;;;13.63;9.65;;;;;;;;;;5032772;28;20580;-69
2024/01/17 05:49:33;;;;;;;17.23;10.45;;;;;;;;;;5033022;28;20072;-70
2024/01/17 05:51:59;;;;;;;18.35;10.77;;;;;;;;;;5032880;28;20042;-68
2024/01/17 05:54:25;;;;;;;16.75;9.80;;;17.90;1.00;;;;;;5032836;28;20415;-70
2024/01/17 05:56:51;;;;;;;19.77;10.60;;;;;;;;;;5032370;28;20116;-70
2024/01/17 05:59:17;;;;;;;17.35;10.75;;;17.90;1.00;;;;;;5032770;28;20095;-70
2024/01/17 06:01:43;;;;;;;18.85;10.15;;;;;;;;;;5032713;28;20045;-70
2024/01/17 06:04:09;;;;;;;17.02;10.25;;;;;;;;;;5032710;28;20033;-70
2024/01/17 06:06:35;;;;;;;19.63;11.40;;;;;;;;;;5032305;28;20049;-72
2024/01/17 06:09:01;;;;;;;17.85;10.30;;;;;;;;;;5032984;28;20088;-71
2024/01/17 06:11:27;;;;;;;25.20;11.52;;;;;;;;;;5032440;28;20037;-70
2024/01/17 06:13:53;;;;;;;24.63;12.13;;;;;;;;;;5032917;28;20694;-70
2024/01/17 06:16:19;;;;;;;20.00;11.60;;;;;;;;;;5032069;28;20052;-72
2024/01/17 06:18:45;;;;;;;14.30;9.63;;;;;;;;;;5032245;28;20041;-70
2024/01/17 06:21:11;;;;;;;23.58;10.38;;;;;;;;;;5032492;28;20045;-70
2024/01/17 06:23:38;;;;;;;21.85;10.50;;;;;;;;;;5015782;28;20034;-70
2024/01/17 06:26:03;;;;;;;17.95;10.73;;;17.90;1.00;;;;;;5031557;28;20129;-70
2024/01/17 06:28:30;;;;;;;14.23;9.95;;;;;;;;;;5015473;28;20073;-70
2024/01/17 06:30:55;;;;;;;20.27;9.75;;;;;;;;;;5032133;28;20041;-69
2024/01/17 06:33:21;;;;;;;18.80;10.80;;;;;;;;;;5032238;28;20052;-67
2024/01/17 06:35:49;;;;;;;19.70;10.27;;;17.90;1.00;;;;;;5031496;28;20037;-70
2024/01/17 06:38:15;;;;;;;14.48;9.45;;;;;;;;;;5031746;28;20472;-69
2024/01/17 06:40:41;;;;;;;15.32;10.25;;;;;;;;;;5031729;28;20136;-69
2024/01/17 06:43:07;;;;;;;16.13;9.57;;;17.70;1.00;;;;;;5031567;28;20045;-69
2024/01/17 06:45:33;;;;;;;17.30;9.27;;;18.00;1.00;;;;;;5031202;28;20091;-70
2024/01/17 06:48:01;;;;;;;16.95;10.43;;;;;;;;;;5031630;28;20037;-70
2024/01/17 06:50:27;;;;;;;22.15;10.55;;;17.80;1.00;;;;;;5015189;28;20041;-70
2024/01/17 06:52:53;;;;;;;21.27;9.65;;;18.00;1.00;;;;;;5031798;28;20042;-70
2024/01/17 06:55:19;;;;;;;20.80;9.95;;;17.70;1.00;;;;;;5031742;28;20129;-69
2024/01/17 06:57:45;;;;;;;19.58;10.07;;;;;;;;;;5030803;28;20025;-70
2024/01/17 07:00:13;;;;;;;17.00;10.32;;;17.90;1.00;;;;;;5030983;28;20079;-68
2024/01/17 07:02:39;;;;;;;15.18;9.60;;;;;;;;;;5031337;28;20116;-71
2024/01/17 07:05:06;;;;;;;15.65;9.82;;;;;;;;;;5014859;28;20048;-70
2024/01/17 07:07:32;;;;;;;18.02;9.73;;;17.90;1.00;;;;;;5031503;28;20167;-70
2024/01/17 07:09:58;;;;;;;18.48;9.63;;;;;;;;;;5007867;28;20511;-70
2024/01/17 07:12:24;;;;;;;15.73;9.90;;;;;;;;;;5027295;28;20060;-72
2024/01/17 07:14:50;;;;;;;14.75;9.48;;;;;;;;;;5026592;28;20084;-72
2024/01/17 07:17:17;;;;;;;15.70;9.20;;;;;;;;;;5027024;28;20041;-71
2024/01/17 07:19:43;;;;;;;16.90;9.00;;;;;;;;;;5027340;28;20111;-68
2024/01/17 07:22:09;;;;;;;25.75;12.40;;;;;;;;;;5026563;28;20854;-70
2024/01/17 07:24:36;;;;;;;16.73;10.23;;;;;;;;;;5027425;28;20075;-66
2024/01/17 07:27:03;;;;;;;15.90;10.05;;;;;;;;;;5034246;28;20124;-70
2024/01/17 07:29:29;;;;;;;18.08;9.40;;;;;;;;;;5036610;28;20038;-70
2024/01/17 07:31:55;;;;;;;14.52;9.40;;;;;;;;;;5043165;28;20469;-73
2024/01/17 07:34:21;;;;;;;18.50;9.48;;;;;;;;;;5050168;28;20388;-70
2024/01/17 07:36:47;;;;;;;14.68;8.63;;;;;;;;;;5050032;28;20041;-70
2024/01/17 07:39:14;;;;;;;16.23;10.27;;;;;;;;;;5050204;28;20527;-70
2024/01/17 07:41:40;;;;;;;11.93;8.57;;;;;;;;;;5050422;28;20044;-68
2024/01/17 07:44:06;;;;;;;13.73;8.85;;;17.60;1.00;;;;;;5033955;28;20052;-69
2024/01/17 07:46:32;;;;;;;14.90;9.35;;;;;;;;;;5050065;28;20033;-71
2024/01/17 07:48:58;;;;;;;16.50;10.55;;;17.70;1.00;;;;;;5050423;28;20040;-70
2024/01/17 07:51:24;;;;;;;17.88;9.60;;;17.60;1.00;;;;;;5050359;28;20033;-71
2024/01/17 07:53:50;;;;;;;16.58;10.90;;;;;;;;;;5033839;28;20052;-71
2024/01/17 07:56:16;;;;;;;20.17;10.10;;;;;;;;;;5049836;28;20049;-71
2024/01/17 07:58:42;;;;;;;21.65;9.45;;;;;;;;;;5050343;28;20049;-71
2024/01/17 08:01:08;;;;;;;16.00;10.35;;;;;;;;;;5050339;28;20049;-71
2024/01/17 08:03:34;;;;;;;18.33;11.30;;;;;;;;;;5050486;28;20068;-70
2024/01/17 08:06:02;;;;;;;18.58;10.10;;;17.80;1.00;;;;;;5033311;28;20043;-70
2024/01/17 08:08:28;;;;;;;15.68;10.00;;;;;;;;;;5050230;28;20033;-70
2024/01/17 08:10:55;;;;;;;17.58;9.90;;;17.60;1.00;;;;;;5050472;28;20041;-71
2024/01/17 08:13:21;;;;;;;17.55;9.50;;;;;;;;;;5050166;28;20033;-71
2024/01/17 08:15:47;;;;;;;14.88;8.57;;;;;;;;;;5033094;28;20420;-70
2024/01/17 08:18:13;;;;;;;14.07;10.30;;;;;;;;;;5050280;28;20044;-71
2024/01/17 08:20:40;;;;;;;15.52;10.20;;;;;;;;;;5050820;28;20094;-70
2024/01/17 08:23:06;;;;;;;14.93;9.45;;;;;;;;;;5050858;28;20080;-71
2024/01/17 08:25:32;;;;;;;17.10;10.30;;;17.90;1.00;;;;;;5050957;28;20393;-70
2024/01/17 08:27:59;;;;;;;17.30;9.90;;;;;;;;;;5033701;28;20040;-70
2024/01/17 08:30:26;;;;;;;16.85;10.15;;;;;;;;;;5050192;28;20408;-72
2024/01/17 08:32:53;;;;;;;14.73;9.68;;;;;;;;;;5033715;28;20132;-70
2024/01/17 08:35:20;;;;;;;14.38;9.40;;;17.80;1.00;;;;;;5049740;28;20049;-69
2024/01/17 08:37:46;;;;;;;21.38;10.32;;;;;;;;;;5049688;28;20120;-71
2024/01/17 08:40:12;;;;;;;16.10;9.20;;;;;;;;;;5033684;28;20060;-72
2024/01/17 08:42:38;;;;;;;14.50;9.90;;;;;;;;;;5049736;28;20041;-71
2024/01/17 08:45:06;;;;;;;15.93;9.23;;;;;;;;;;5049314;28;20548;-73
2024/01/17 08:47:32;;;;;;;14.50;9.80;;;;;;;;;;5049774;28;20535;-70
2024/01/17 08:50:00;;;;;;;15.23;9.43;;;;;;;;;;5049748;28;20409;-70
2024/01/17 08:52:26;;;;;;;16.48;9.55;;;;;;;;;;5054135;28;20510;-71
2024/01/17 08:54:54;;;;;;;16.38;9.68;;;;;;;;;;5053426;28;20052;-73
2024/01/17 08:57:20;;;;;;;18.60;9.55;;;;;;;;;;5053682;28;20509;-72
2024/01/17 08:59:46;;;;;;;19.98;9.15;;;;;;;;;;5053811;28;20106;-70
2024/01/17 09:02:12;;;;;;;16.75;9.63;;;;;;;;;;5036186;28;20511;-70
2024/01/17 09:04:39;;;;;;;12.35;8.32;;;;;;;;;;5017501;28;20045;-71
2024/01/17 09:07:05;;;;;;;16.92;11.75;;;;;;;;;;5034125;28;20049;-71
2024/01/17 09:09:31;;;;;;;15.32;9.63;;;;;;;;;;5034665;28;20041;-71
2024/01/17 09:11:57;;;;;;;14.23;8.70;;;;;;;;;;5033404;28;20037;-71
2024/01/17 09:14:24;;;;;;;12.65;9.30;;;;;;;;;;5033763;28;20051;-71
2024/01/17 09:16:53;;;;;;;14.77;8.77;;;18.00;1.00;;;;;;5032758;28;20453;-68
2024/01/17 09:19:23;;;;;;;16.20;8.68;;;18.10;1.00;;;;;;5033387;28;20041;-69
2024/01/17 09:21:49;;;;;;;18.08;9.40;;;;;;;;;;5016782;28;20034;-71
2024/01/17 09:24:15;;;;;;;16.83;9.50;;;18.00;1.00;;;;;;5033600;28;20049;-71
2024/01/17 09:26:40;;;;;;;14.05;9.10;;;;;;;;;;5032653;28;20041;-68
2024/01/17 09:29:06;;;;;;;17.67;10.25;;;;;;;;;;5033217;28;20512;-71
2024/01/17 09:31:32;;;;;;;13.50;9.00;;;18.00;1.00;;;;;;5033294;28;20060;-71
2024/01/17 09:33:58;;;;;;;15.73;8.90;;;;;;;;;;5034370;28;20049;-71
2024/01/17 09:36:24;;;;;;;14.43;9.43;;;;;;;;;;5032585;28;20640;-71
2024/01/17 09:38:51;;;;;;;12.55;8.40;;;18.30;1.00;;;;;;5033191;28;20064;-71
2024/01/17 09:41:17;;;;;;;15.65;10.60;;;;;;;;;;5032989;28;20048;-74
2024/01/17 09:43:43;;;;;;;13.05;8.38;;;;;;;;;;5032179;28;20038;-69
2024/01/17 09:46:12;;;;;;;14.02;9.15;;;18.20;1.00;;;;;;5032417;28;20038;-70
2024/01/17 09:48:39;;;;;;;19.45;10.32;;;;;;;;;;5017044;28;20124;-70
2024/01/17 09:51:05;;;;;;;18.30;9.70;;;;;;;;;;5033430;28;20685;-70
2024/01/17 09:53:33;;;;;;;15.82;9.07;;;18.30;1.00;;;;;;5033275;28;20478;-71
2024/01/17 09:55:59;;;;;;;14.68;9.55;;;;;;;;;;5032213;28;20051;-69
2024/01/17 09:58:28;;;;;;;14.05;8.35;;;;;;;;;;5032529;28;20045;-71
2024/01/17 10:00:55;;;;;;;14.95;8.88;;;18.30;1.00;;;;;;5015716;28;20037;-69
2024/01/17 10:03:21;;;;;;;13.32;8.65;;;;;;;;;;5032341;28;20049;-69
2024/01/17 10:05:50;;;;;;;14.60;8.77;;;18.60;1.00;;;;;;5032304;28;20041;-70
2024/01/17 10:08:18;;;;;;;16.17;8.48;;;;;;;;;;5015838;28;20052;-71
2024/01/17 10:10:43;;;;;;;11.55;8.18;;;;;;;;;;5032439;28;20400;-68
2024/01/17 10:13:11;;;;;;;12.98;8.80;;;;;;;;;;5032457;28;20076;-67
2024/01/17 10:15:46;;;;;;;15.32;8.27;;;;;;;;;;5031809;28;20049;-70
2024/01/17 10:18:12;;;;;;;13.35;9.25;;;;;;;;;;5032190;28;20045;-70
2024/01/17 10:20:38;;;;;;;13.70;8.38;;;18.50;1.00;;;;;;5032401;28;20231;-70
2024/01/17 10:23:07;;;;;;;16.48;8.55;;;;;;;;;;5032203;28;20192;-69
2024/01/17 10:25:40;;;;;;;13.63;8.63;;;18.30;1.00;;;;;;5031811;28;20048;-70
2024/01/17 10:28:06;;;;;;;15.15;7.88;;;;;;;;;;5032057;28;20095;-70
2024/01/17 10:30:32;;;;;;;16.15;8.10;;;;;;;;;;5032264;28;20045;-69
2024/01/17 10:32:58;;;;;;;14.50;7.93;;;;;;;;;;5032071;28;20053;-70
2024/01/17 10:35:24;;;;;;;14.55;8.10;;;;;;;;;;5031530;28;20049;-70
2024/01/17 10:37:54;;;;;;;15.30;8.15;;;18.40;1.00;;;;;;5031946;28;20132;-70
2024/01/17 10:40:20;;;;;;;16.77;8.73;;;;;;;;;;5031884;28;20037;-70
2024/01/17 10:42:46;;;;;;;15.10;7.80;;;;;;;;;;5031759;28;20520;-70
2024/01/17 10:45:22;;;;;;;16.05;8.30;;;;;;;;;;5031224;28;20553;-70
2024/01/17 10:47:48;;;;;;;16.73;9.00;;;;;;;;;;5032885;28;20038;-67
2024/01/17 10:50:16;;;;;;;15.13;8.15;;;;;;;;;;5031587;28;20065;-70
2024/01/17 10:52:43;;;;;;;11.88;7.65;;;18.60;1.00;;;;;;5031489;28;20128;-70
2024/01/17 10:55:10;;;;;;;12.48;7.40;;;18.50;1.00;;;;;;5031271;28;20056;-69
2024/01/17 10:57:44;;;;;;;13.20;7.70;;;;;;;;;;5032935;28;20125;-70
2024/01/17 11:00:15;;;;;;;15.88;8.30;;;;;;;;;;5031848;28;20404;-68
2024/01/17 11:02:41;;;;;;;16.17;8.38;;;18.50;1.00;;;;;;5031494;28;20045;-69
2024/01/17 11:05:08;;;;;;;10.68;7.40;;;18.50;1.00;;;;;;5031236;28;20393;-69
2024/01/17 11:07:36;;;;;;;12.95;6.75;;;;;;;;;;5031563;28;20123;-70
2024/01/17 11:10:03;;;;;;;17.15;7.97;;;;;;;;;;5031156;28;20100;-69
2024/01/17 11:12:32;;;;;;;11.43;7.38;;;18.40;1.00;;;;;;5014480;28;20046;-69
2024/01/17 11:15:00;;;;;;;15.32;7.60;;;18.80;1.00;;;;;;5013850;28;20042;-69
2024/01/17 11:17:28;;;;;;;18.60;7.90;;;18.50;1.00;;;;;;5031356;28;20405;-69
2024/01/17 11:19:55;;;;;;;17.88;7.45;;;;;;;;;;5032366;28;20037;-69
2024/01/17 11:22:22;;;;;;;15.43;7.45;;;;;;;;;;5030392;28;20069;-68
2024/01/17 11:25:03;;;;;;;17.20;9.20;;;;;;;;;;5024567;28;20100;-68
2024/01/17 11:27:38;;;;;;;14.07;7.90;;;18.50;1.00;;;;;;5030375;28;20034;-69
2024/01/17 11:30:32;;;;;;;11.30;7.13;;;18.70;1.00;;;;;;5027883;28;20100;-69
2024/01/17 11:32:58;;;;;;;;;;;;;;;;;;5027973;28;20033;-68
2024/01/17 11:35:44;;;;;;;16.58;7.10;;;;;;;;;;5029672;28;19920;-68
2024/01/17 11:38:13;;;;;;;17.55;8.32;;;;;;;;;;5029620;28;20152;-69
2024/01/17 11:40:40;;;;;;;13.50;7.30;;;;;;;;;;5029725;28;20041;-69
2024/01/17 11:43:14;;;;;;;19.38;8.10;;;19.10;1.00;;;;;;5030101;28;20133;-71
2024/01/17 11:45:40;;;;;;;11.90;7.47;;;;;;;;;;5030851;28;20044;-69
2024/01/17 11:48:15;;;;;;;14.63;7.03;;;18.80;1.00;;;;;;5013083;28;20099;-70
2024/01/17 11:50:42;;;;;;;14.85;7.22;;;;;;;;;;5031409;28;20037;-69
2024/01/17 11:53:08;;;;;;;15.18;7.10;;;;;;;;;;5023180;28;20562;-69
2024/01/17 11:55:48;;;;;;;13.25;7.78;;;;;;;;;;5008933;28;20041;-71
2024/01/17 11:58:15;;;;;;;11.88;6.53;;;;;;;;;;5024174;28;20124;-69
2024/01/17 12:00:41;;;;;;;10.75;6.43;;;18.80;1.00;;;;;;5026174;28;20417;-70
2024/01/17 12:03:07;;;;;;;11.40;6.20;;;;;;;;;;5021707;28;20069;-70
2024/01/17 12:05:36;;;;;;;12.48;6.90;;;;;;;;;;5017747;28;20073;-70
2024/01/17 12:08:06;;;;;;;12.48;7.03;;;;;;;;;;5004672;28;20043;-69
2024/01/17 12:10:32;;;;;;;13.98;6.88;;;;;;;;;;5026513;28;20057;-70
2024/01/17 12:12:58;;;;;;;13.20;8.90;;;;;;;;;;5026385;28;20045;-69
2024/01/17 12:15:24;;;;;;;9.98;6.43;;;;;;;;;;5025800;28;20071;-69
2024/01/17 12:17:50;;;;;;;10.25;6.30;;;;;;;;;;5025783;28;20053;-68
2024/01/17 12:20:17;;;;;;;11.25;7.10;;;;;;;;;;5025918;28;20092;-68
2024/01/17 12:22:50;;;;;;;10.30;6.45;;;;;;;;;;5024947;28;20084;-68
2024/01/17 12:25:17;;;;;;;12.93;6.93;;;;;;;;;;5028102;28;20047;-70
2024/01/17 12:27:43;;;;;;;13.02;6.22;;;;;;;;;;5032113;28;20493;-69
2024/01/17 12:30:10;;;;;;;15.25;7.47;;;;;;;;;;5037868;28;20044;-69
2024/01/17 12:32:36;;;;;;;10.70;7.47;;;;;;;;;;5032182;28;20125;-68
2024/01/17 12:35:03;;;;;;;9.77;6.75;;;;;;;;;;5004995;28;20041;-74
2024/01/17 12:37:29;;;;;;;11.32;6.50;;;;;;;;;;5034314;28;20572;-68
2024/01/17 12:39:55;;;;;;;10.38;6.63;;;;;;;;;;5034034;28;20049;-70
2024/01/17 12:42:21;;;;;;;11.27;7.10;;;;;;;;;;5034229;28;20103;-70
2024/01/17 12:44:47;;;;;;;11.88;6.53;;;;;;;;;;5036008;28;20029;-69
2024/01/17 12:47:14;;;;;;;11.57;6.75;;;;;;;;;;5035267;28;20038;-70
2024/01/17 12:49:40;;;;;;;14.27;6.90;;;;;;;;;;5035076;28;20397;-69
2024/01/17 12:52:06;;;;;;;9.30;7.50;;;;;;;;;;5036090;28;20045;-69
2024/01/17 12:54:32;;;;;;;11.18;7.00;;;;;;;;;;5036461;28;20374;-69
2024/01/17 12:56:58;;;;;;;11.18;7.35;;;;;;;;;;5019168;28;20037;-69
2024/01/17 12:59:24;;;;;;;12.05;6.97;;;;;;;;;;5036136;28;20041;-69
2024/01/17 13:01:50;;;;;;;12.55;7.20;;;;;;;;;;5035988;28;20485;-69
2024/01/17 13:04:17;;;;;;;9.93;6.65;;;;;;;;;;5019091;28;20099;-69
2024/01/17 13:06:44;;;;;;;12.55;7.43;;;;;;;;;;5018739;28;20569;-66
2024/01/17 13:09:17;;;;;;;11.55;7.22;;;;;;;;;;5037214;28;20409;-69
2024/01/17 13:11:56;;;;;;;10.98;7.53;;;;;;;;;;5036270;28;20041;-69
2024/01/17 13:14:23;;;;;;;15.00;7.45;;;;;;;;;;5019520;28;20052;-69
2024/01/17 13:16:49;;;;;;;11.75;7.25;;;18.60;1.00;;;;;;5035209;28;20073;-69
2024/01/17 13:19:16;;;;;;;16.13;7.50;;;18.70;1.00;;;;;;5036835;28;20439;-70
2024/01/17 13:21:47;;;;;;;14.23;7.65;;;18.60;1.00;;;;;;5035725;28;20471;-70
2024/01/17 13:24:13;;;;;;;12.07;8.50;;;18.50;1.00;;;;;;5019945;28;20052;-71
2024/01/17 13:26:39;;;;;;;13.40;7.20;;;;;;;;;;5035870;28;20124;-70
2024/01/17 13:29:06;;;;;;;12.38;8.43;;;18.80;1.00;;;;;;5035975;28;20041;-69
2024/01/17 13:31:35;;;;;;;13.43;7.60;;;18.70;1.00;;;;;;5019036;28;20041;-70
2024/01/17 13:34:04;;;;;;;11.35;7.70;;;;;;;;;;5036132;28;20125;-70
2024/01/17 13:36:31;;;;;;;12.93;7.50;;;18.80;1.00;;;;;;5032924;28;20045;-70
2024/01/17 13:38:57;;;;;;;12.55;7.85;;;;;;;;;;5032831;28;20045;-69
2024/01/17 13:41:22;;;;;;;13.60;7.68;;;18.60;1.00;;;;;;5032858;28;20037;-70
2024/01/17 13:43:49;;;;;;;16.55;8.38;;;;;;;;;;5032671;28;20520;-70
2024/01/17 13:46:15;;;;;;;11.00;7.53;;;;;;;;;;5032393;28;20045;-71
2024/01/17 13:48:41;;;;;;;13.23;7.90;;;18.80;1.00;;;;;;5016068;28;20135;-70
2024/01/17 13:51:10;;;;;;;9.85;7.95;;;18.90;1.00;;;;;;5032750;28;20049;-70
2024/01/17 13:53:41;;;;;;;11.25;7.63;;;18.80;1.00;;;;;;5032869;28;20050;-70
2024/01/17 13:56:09;;;;;;;11.38;7.35;;;;;;;;;;5015621;28;20048;-70
2024/01/17 13:58:37;;;;;;;14.05;8.10;;;;;;;;;;5033480;28;20122;-70